Timeline UpdatesTrip UpdatesNews PostsPvt Posts♥♥Travel TipsAdmin PostsConv PostsFollowed PostsChat RequestsBlog PostsPNR Posts

Disclaimer
Search
 
 
Wed Nov 26, 2014 23:00:38 ISTHomeTrainsΣChainsAtlasPNRForumGalleryNewsFAQTripsMembersLoginFeedback
No Recent News for this Train
Other Trains in the News **new
Latest...
..
Tue Sep 03, 2013 (03:50PM)
⇐ Return Journey: Train# 11040

11039/Maharashtra Express

Time-Table HAS CHANGED.
Sep 04 2014 (10:14PM)
Change Departure Station:
Change Arrival Station:
Post a Train Travel TipPost a Train Travel Tip **new
Post a Comment/Question/Picture/VideoPost a Comment/Question/Picture/Video
Pantry/Catering
✕ NO Pantry Car
✓ Catering Avbl
Loco/Rake Reversals
PUNE/Pune Junction (6); DD/Daund Junction (7);
RSA - Rake Sharing
11023/11024 Sahyadri Express
Rake/Coach Composition
[LOCO] [S10 (From Daund Jn To Gondia)] [SLR] [UR] [A1] [B1] [S1] [S2] [S3] [S4] [S5] [S6] [S7] [S8] [UR] [SLR] [S9 (Kolhapur To Bhusaval)]
Loco
KOP-BSL: PUNE/GY/GTL WDM-3D BSL-G: BSL WAP-4
News    PNR    Forum    Time-Table    Availability    Fare Chart    Map    Arr/Dep History    Trips    Gallery    ΣChains    X/O    Timeline    
Travel Time: 7h 35m    23 halts    Distance: 327 km    Avg Speed: 43 km/hr
Type: Mail/Express
Zone: CR/Central
Departs @ 15:30
Platform# 2
SMTWTFS
Kolhapur CSMT/KOP 
Arrives @ 23:05
Platform# 2
SMTWTFS
Pune Junction/PUNE 

23 halts. 42 intermediate Stations between Kolhapur CSMT and Pune Junction

Show ALL intermediate Stations  Show Old Time-Table

#TrkCodeStation NameX/OArrivesAvgDepartsAvgHaltPFDay#KmSpeedElevZoneAddress
1|--|KOPKolhapur CSMT (3)»  -15:30-210.056563mCRKolhapur 416001, Maharashtra
2|--|VVValivade  15:38 15:37-15:39-1 2m116.650554mCRValivade, Maharashtra
3|--|RKDRukadi (1)X  15:48 15:47-15:49-1 2m2113.250544mCRKolhapur, Maharashtra
4|--|HTKHatkanagale (2)  15:59 15:58-16:00-1 2m1120.767591mCRDist. Kolhapur 416115, Maharashtra
5|--|JSPJayasingpur  16:14 16:13-16:15-1 2m1135.236550mCRJaysingpur, Maharashtra
6|--|MRJMiraj Junction (6)X  16:35-16:40-5m1147.137554mCRMiraj 416410, Maharashtra
7|--|SLISangli (3)  16:52-16:55-3m1154.457559mCRSangli, Maharashtra
8|--|BVQBhilavdi  17:16 17:15-17:17-1 2m1173.555570mCRSangli, Maharashtra
9|--|KOVKirloskarvadi  17:33 17:32-17:34-1 2m1187.351570mCRSangli, Maharashtra
10|--|TKRTakariX  17:44 17:43-17:45-1 2m1194.992558mCRSangli, Maharashtra
11|--|BVNRBhavani Nagar  17:50 17:49-17:51-1 2m11101.175578mCRTasgaon Rd, Maharashtra
12|--|KRDKarad (3)  18:07 18:08-18:10-3 2m11122.355597mCRDist- Satara., Maharashtra
13|--|MSRMasur  18:26 18:25-18:27-1 2m11136.170610mCRSatara, Maharashtra
14|--|TAZTargaonX  18:39 18:38-18:40-1 2m11148.966617mCRSatara, Maharashtra
15|--|RMPRahimatpur  18:51 18:50-18:52-1 2m11160.056626mCRSatara, Maharashtra
16|--|KRGKoregaonX  19:04 19:03-19:05-1 2m11170.332658mCRKoregaon, Maharashtra
17|--|STRSatara (3)  19:25-19:28-3m21181.046637mCRSatara, Maharashtra
18|--|JSVJarandeshwar  19:39 19:38-19:40-1 2m11188.661678mCRSH 61, Maharashtra
19|--|WTRWatharX  19:59 19:58-20:00-1 2m11207.051799mCRSatara, Maharashtra
20|--|LNNLonand  20:33 20:32-20:34-1 2m11234.351594mCRJn Point Daund /Miraj /Pune, Maharashtra
21|--|NIRANira (1)  20:43-20:45-2m11242.057553mCRDist. Pune 412102, Maharashtra
22|--|JJRJejuri (1)  21:14 21:13-21:15-1 2m11268.578697mCRDist. Pune 412303, Maharashtra
23|--|ABLEAmbale  21:29 21:28-21:30-1 2m11285.444729mCRMalshiras Rd, Maharashtra
24|-=/GPRGhorpuri (2)  22:24 22:23-22:25-1 2m11324.43558mCRPune, Maharashtra
25/==/PUNEPune Junction (6)•X23:05-23:20-15m21326.762556mCRPune 411001, Maharashtra
26/==/URIUruli (2)  23:49 23:48-23:50-1 2m21355.566553mCRDist. Pune 412202, Maharashtra
27/==%KDGKedgaon (2)X  00:14 00:13-00:15-1 2m22380.732544mCRDist. Pune 412203, Maharashtra
28%==%DDDaund Junction (7)XO00:55-01:10-15m32402.358521mCRNew Daund Dist. Pune 413801, Maharashtra
29/--/ANGAhmadnagar (2)  02:37-02:40-3m12486.559650mCRAhmednagar 414001, Maharashtra
30/--/BAPBelapur (2)  03:48-03:50-2m12553.568541mCRShrirampur, Maharashtra
31/--/PBPuntamba Junction (2)X  04:08-04:10-2m12573.869501mCRPuntamba, Maharashtra
32/--/KPGKopargaon (2)X  04:31-04:33-2m12598.127508mCRKopargaon 423601, Maharashtra
33/--/YLYeola (2)X  05:03-05:05-2m12611.826553mCRYeola, Maharashtra
34/--/MMRManmad Junction (6)X  06:10-06:15-5m52640.485580mCRManmad 423104, Maharashtra
35/==/NGNNandgaon (3)X  06:33-06:35-2m22665.790476mCRNandgaon, Maharashtra
36/==/CSNChalisgaon Junction (3)X  07:03-07:05-2m22707.996352mCRChalisgaon 424101, Maharashtra
37/==/PCPachora Junction (4)  07:33-07:35-2m22752.775264mCRPachora 424201, Maharashtra
38/==/JLJalgaon Junction (4)  08:13-08:15-2m12800.458213mCRJalgaon 425001, Maharashtra
39/==/BSLBhusaval Junction (8)08:40-09:00-20m42824.657208mCRBhusaval 425201, Maharashtra
40/==/BDWDBodwad (2)  09:32-09:34-2m22854.884294mCRBodwad, Maharashtra
41/==/MKUMalkapur (2)  09:48-09:50-2m12874.584252mCRMalkapur, Maharashtra
42/==/NNNandura (2)  10:10-10:12-2m12902.467267mCRNandura, Maharashtra
43/==/JMJalamb Junction (3)  10:23-10:25-2m--2914.657259mCRJalamb, Maharashtra
44/==/SEGShegaon (2)  10:38-10:40-2m22927.064281mCRShegaon 444203, Maharashtra
45/==/AKAkola Junction (7)X  11:15-11:20-5m22964.180284mCRAkola-444001, Maharashtra
46/==/MZRMurtizapur (3)X  11:48-11:50-2m221001.336303mCRMurtajapur, Maharashtra
47/==/BDBadnera Junction (4)X  13:00-13:05-5m121043.149335mCRBadnera (Amravati) 444701, Maharashtra
48/==/CNDChandur (2)  13:40-13:42-2m--21071.977331mCRAmravati Distt, Maharashtra
49/==/DMNDhamangaon (2)  13:55-13:57-2m--21088.680300mCRDhamangaon, Maharashtra
50/==/PLOPulgaon Junction (3)  14:12-14:14-2m121108.547273mCRPulgaon, Maharashtra
51/==/WRWardha Junction (4)X  14:52-14:55-3m--21138.132289mCRWardha 442001, Maharashtra
52/==/SEGMSewagram Junction (5)  15:00-15:02-2m--21140.871279mCRWardha, Maharashtra
53/==/TGPTuljapur (2)XO  15:21 15:20-15:22-1 2m--21162.195259mCRTuljapur, Maharashtra
54/==/SNISindi (2)XO  15:27-15:29-2m--21170.177258mCRWardha, Maharashtra
55/==/AJNIAjni (3)XO  16:03-16:05-2m121213.92310mCRNagpur 440003, Maharashtra
56/==/NGPNagpur Junction (8)X  17:20-17:40-20m421217.025314mCRNagpur 440001, Maharashtra
57|--|ITRItwari (3)  17:49-17:51-2m--21220.730306mSECRNagpur, Maharashtra
58/==/KPKamptee (3)X  18:12-18:14-2m--21231.296290mSECRKamptee, Maharashtra
59/==/BRDBhandara Road (3)X  18:44-18:46-2m121279.277266mSECRState Highway 252 Bhandara District, Maharashtra
60/==/TMRTumsar Road (5)X  19:00-19:02-2m121297.181267mSECRDistt. Bhandara, Maharashtra
61/==/TROTirora (3)  19:17-19:19-2m121317.531282mSECRDist Gondia, Maharashtra
62/==/GGondia Junction (7)  20:15--521346.8-316mSECRGondia 441601, Maharashtra
Scroll to Top
Scroll to Bottom